• Join FlightAware (Why Join?)
  • Login
  • US Flag 
05:18PM EDT


 

Airport Tracker/Info


-or-


 

Live Flight TrackerFlight Track Log ✈ CES2231 ✈ 22-Jun-2013 ✈ ZLXY / XIY - ZUJZ / JZH

Flight Track Log - Related Links

Times and Time Zones

All times are in EDT time to prevent confusion due to time zone crossing. See the CES2231 flight status page for this flight to view local times or setup timezone preferences in your user account.

Time Position Orientation Groundspeed Altitude Reporting Facility
EDT Latitude Longitude Course Direction KTS MPH feet Rate Location/Type
06:53AM 33.9488 107.0696 251° West  Level Estimated
06:54AM 33.9220 106.9817 250° West  Level Estimated
06:55AM 33.8951 106.8937 250° West  Level Estimated
06:56AM 33.8681 106.8059 250° West  Level Estimated
06:57AM 33.8410 106.7181 250° West  Level Estimated
06:58AM 33.8139 106.6303 250° West  Level Estimated
06:59AM 33.7868 106.5426 250° West  Level Estimated
07:00AM 33.7595 106.4550 250° West  Level Estimated
07:01AM 33.7322 106.3674 249° West  Level Estimated
07:02AM 33.7049 106.2799 249° West  Level Estimated
07:03AM 33.6775 106.1924 249° West  Level Estimated
07:04AM 33.6500 106.1050 249° West  Level Estimated
07:05AM 33.6225 106.0176 249° West  Level Estimated
07:06AM 33.5948 105.9303 249° West  Level Estimated
07:07AM 33.5672 105.8431 249° West  Level Estimated
07:08AM 33.5395 105.7559 249° West  Level Estimated
07:09AM 33.5117 105.6687 249° West  Level Estimated
07:10AM 33.4838 105.5817 249° West  Level Estimated
07:11AM 33.4559 105.4947 249° West  Level Estimated
07:12AM 33.4280 105.4077 249° West  Level Estimated
07:13AM 33.3999 105.3208 249° West  Level Estimated
07:14AM 33.3718 105.2339 249° West  Level Estimated
07:15AM 33.3437 105.1471 249° West  Level Estimated
07:16AM 33.3155 105.0604 249° West  Level Estimated
07:17AM 33.2872 104.9737 249° West  Level Estimated
07:18AM 33.2589 104.8870 249° West  Level Estimated
07:19AM 33.2305 104.8005 249° West  Level Estimated
07:20AM 33.2020 104.7140 249° West  Level Estimated
07:21AM 33.1735 104.6275 249° West  Level Estimated
07:22AM 33.1450 104.5411 248° West  Level Estimated
07:23AM 33.1163 104.4547 248° West  Level Estimated
07:24AM 33.0876 104.3684 248° West  Level Estimated
07:25AM 33.0589 104.2822 248° West  Level Estimated
07:26AM 33.0301 104.1960 248° West  Level Estimated
07:27AM 33.0012 104.1099 248° West  Level Estimated
07:28AM 32.9683 104.0120 248° West  Level Estimated
07:29AM 32.9354 103.9142 248° West  Level Estimated
07:30AM 32.9023 103.8165 248° West  Level Estimated
07:31AM 32.8692 103.7188 248° West  Level Estimated
07:32AM 32.8570 103.6830 248° West  Level Estimated
07:33AM 32.8570 103.6830 North  Level Estimated
07:34AM 32.8570 103.6830 North  Level Estimated
07:35AM 32.8570 103.6830 North  Level Estimated
07:36AM 32.8570 103.6830 North  Level Estimated
07:37AM 32.8570 103.6830 North  Level Estimated
07:38AM 32.8570 103.6830 North  Level Estimated
07:39AM 32.8570 103.6830 North  Level Estimated
07:40AM 32.8570 103.6830 North  Level Estimated
07:41AM 32.8570 103.6830 North  Level Estimated